createdAt,value
2023-03-06T00:00:40.134Z,-0.5135
2023-03-06T00:01:40.154Z,-0.4985
2023-03-06T00:02:40.201Z,-0.4836
2023-03-06T00:03:40.274Z,-0.4985
2023-03-06T00:04:40.279Z,-0.4985
2023-03-06T00:05:40.371Z,-0.5204
2023-03-06T00:06:40.349Z,-0.5055
2023-03-06T00:07:40.395Z,-0.5204
2023-03-06T00:08:40.422Z,-0.5354
2023-03-06T00:09:40.473Z,-0.5582
2023-03-06T00:10:40.509Z,-0.5582
2023-03-06T00:11:40.545Z,-0.5432
2023-03-06T00:12:40.586Z,-0.4906
2023-03-06T00:13:40.636Z,-0.5055
2023-03-06T00:14:40.661Z,-0.5416
2023-03-06T00:15:40.698Z,-0.5865
2023-03-06T00:16:40.729Z,-0.5912
2023-03-06T00:17:40.767Z,-0.5763
2023-03-06T00:18:40.812Z,-0.5661
2023-03-06T00:19:40.856Z,-0.5661
2023-03-06T00:20:40.904Z,-0.5591
2023-03-06T00:21:40.937Z,-0.567
2023-03-06T00:22:40.958Z,-0.5373
2023-03-06T00:23:40.999Z,-0.5295
2023-03-06T00:24:41.029Z,-0.4932
2023-03-06T00:25:41.063Z,-0.4425
2023-03-06T00:26:41.124Z,-0.361
2023-03-06T00:27:41.146Z,-0.368
2023-03-06T00:28:41.194Z,-0.3451
2023-03-06T00:29:41.211Z,-0.3804
2023-03-06T00:30:41.231Z,-0.3747
2023-03-06T00:31:41.337Z,-0.3893
2023-03-06T00:32:41.303Z,-0.4185
2023-03-06T00:33:41.345Z,-0.4478
2023-03-06T00:34:41.379Z,-0.4772
2023-03-06T00:35:41.520Z,-0.5214
2023-03-06T00:36:41.452Z,-0.559
2023-03-06T00:37:41.493Z,-0.5443
2023-03-06T00:38:41.509Z,-0.523
2023-03-06T00:39:41.545Z,-0.4707
2023-03-06T00:40:41.598Z,-0.4561
2023-03-06T00:41:41.612Z,-0.4561
2023-03-06T00:42:41.655Z,-0.4332
2023-03-06T00:43:41.674Z,-0.4478
2023-03-06T00:44:41.717Z,-0.5159
2023-03-06T00:45:41.799Z,-0.5453
2023-03-06T00:46:41.792Z,-0.5066
2023-03-06T00:47:41.843Z,-0.5066
2023-03-06T00:48:41.858Z,-0.4814
2023-03-06T00:49:41.900Z,-0.4995
2023-03-06T00:50:41.934Z,-0.5214
2023-03-06T00:51:41.965Z,-0.5066
2023-03-06T00:52:42.210Z,-0.5066
2023-03-06T00:53:42.045Z,-0.4772
2023-03-06T00:54:42.074Z,-0.4772
2023-03-06T00:55:42.111Z,-0.4553
2023-03-06T00:56:42.151Z,-0.4553
2023-03-06T00:57:42.211Z,-0.4871
2023-03-06T00:58:42.229Z,-0.4871
2023-03-06T00:59:42.272Z,-0.479
2023-03-06T01:00:42.377Z,-0.5143
2023-03-06T01:01:42.336Z,-0.5118
2023-03-06T01:02:42.389Z,-0.4937
2023-03-06T01:03:42.412Z,-0.5085
2023-03-06T01:04:42.442Z,-0.4937
2023-03-06T01:05:42.481Z,-0.4866
2023-03-06T01:06:42.506Z,-0.4866
2023-03-06T01:07:42.546Z,-0.4866
2023-03-06T01:08:42.589Z,-0.4866
2023-03-06T01:09:42.634Z,-0.4785
2023-03-06T01:10:42.668Z,-0.4785
2023-03-06T01:11:42.708Z,-0.4785
2023-03-06T01:12:42.743Z,-0.5013
2023-03-06T01:13:42.772Z,-0.5013
2023-03-06T01:14:42.820Z,-0.4718
2023-03-06T01:15:42.882Z,-0.4718
2023-03-06T01:16:42.965Z,-0.4489
2023-03-06T01:17:42.904Z,-0.4489
2023-03-06T01:18:42.950Z,-0.4489
2023-03-06T01:19:42.974Z,-0.4489
2023-03-06T01:20:43.008Z,-0.4489
2023-03-06T01:21:43.080Z,-0.4342
2023-03-06T01:22:43.136Z,-0.4695
2023-03-06T01:23:43.128Z,-0.4866
2023-03-06T01:24:43.149Z,-0.4866
2023-03-06T01:25:43.191Z,-0.4638
2023-03-06T01:26:43.248Z,-0.4638
2023-03-06T01:27:43.267Z,-0.4638
2023-03-06T01:28:43.288Z,-0.4638
2023-03-06T01:29:43.336Z,-0.4638
2023-03-06T01:30:43.367Z,-0.4638
2023-03-06T01:31:43.463Z,-0.4638
2023-03-06T01:32:43.440Z,-0.4638
2023-03-06T01:33:43.476Z,-0.449
2023-03-06T01:34:43.527Z,-0.449
2023-03-06T01:35:43.583Z,-0.449
2023-03-06T01:36:43.604Z,-0.449
2023-03-06T01:37:43.657Z,-0.449
2023-03-06T01:38:43.681Z,-0.4343
2023-03-06T01:39:43.737Z,-0.4343
2023-03-06T01:40:43.770Z,-0.4343
2023-03-06T01:41:43.833Z,-0.4196
2023-03-06T01:42:44.947Z,-0.4196
2023-03-06T01:43:43.880Z,-0.4377
2023-03-06T01:44:43.917Z,-0.473
2023-03-06T01:45:43.970Z,-0.4959
2023-03-06T01:46:44.027Z,-0.4812
2023-03-06T01:47:44.038Z,-0.4583
2023-03-06T01:48:44.070Z,-0.4583
2023-03-06T01:49:44.142Z,-0.4583
2023-03-06T01:50:44.135Z,-0.4437
2023-03-06T01:51:44.180Z,-0.4437
2023-03-06T01:52:44.213Z,-0.4084
2023-03-06T01:53:44.254Z,-0.3903
2023-03-06T01:54:44.296Z,-0.3903
2023-03-06T01:55:44.326Z,-0.3903
2023-03-06T01:56:44.357Z,-0.4084
2023-03-06T01:57:44.397Z,-0.4084
2023-03-06T01:58:44.438Z,-0.3985
2023-03-06T01:59:44.465Z,-0.3839
2023-03-06T02:00:44.622Z,-0.3692
2023-03-06T02:01:44.544Z,-0.3692
2023-03-06T02:02:44.595Z,-0.3317
2023-03-06T02:03:44.606Z,-0.3546
2023-03-06T02:04:44.632Z,-0.34
2023-03-06T02:05:44.661Z,-0.3254
2023-03-06T02:06:44.717Z,-0.3109
2023-03-06T02:07:44.754Z,-0.2963
2023-03-06T02:08:44.778Z,-0.2963
2023-03-06T02:09:44.820Z,-0.2818
2023-03-06T02:10:44.847Z,-0.2646
2023-03-06T02:11:44.953Z,-0.2147
2023-03-06T02:12:44.932Z,-0.2147
2023-03-06T02:13:44.946Z,-0.2002
2023-03-06T02:14:44.990Z,-0.1773
2023-03-06T02:15:45.033Z,-0.1628
2023-03-06T02:16:45.097Z,-0.1628
2023-03-06T02:17:45.110Z,-0.1628
2023-03-06T02:18:45.137Z,-0.1628
2023-03-06T02:19:45.166Z,-0.1628
2023-03-06T02:20:45.219Z,-0.1628
2023-03-06T02:21:45.247Z,-0.1482
2023-03-06T02:22:45.283Z,-0.1482
2023-03-06T02:23:45.324Z,-0.1482
2023-03-06T02:24:45.363Z,-0.1654
2023-03-06T02:25:45.426Z,-0.1654
2023-03-06T02:26:45.429Z,-0.1338
2023-03-06T02:27:45.458Z,-0.1108
2023-03-06T02:28:45.501Z,-0.1072
2023-03-06T02:29:45.535Z,-0.09268
2023-03-06T02:30:45.594Z,-0.09268
2023-03-06T02:31:45.615Z,-0.1156
2023-03-06T02:32:45.637Z,-0.1156
2023-03-06T02:33:45.671Z,-0.09268
2023-03-06T02:34:45.712Z,-0.07821
2023-03-06T02:35:45.786Z,-0.07821
2023-03-06T02:36:45.797Z,-0.07821
2023-03-06T02:37:45.818Z,-0.07821
2023-03-06T02:38:45.850Z,-0.07821
2023-03-06T02:39:45.896Z,-0.07821
2023-03-06T02:40:45.933Z,-0.09268
2023-03-06T02:41:45.965Z,-0.09268
2023-03-06T02:42:46.009Z,-0.09268
2023-03-06T02:43:46.048Z,-0.09268
2023-03-06T02:44:46.088Z,-0.09268
2023-03-06T02:45:46.194Z,-0.07821
2023-03-06T02:46:46.162Z,-0.07821
2023-03-06T02:47:46.193Z,-0.02566
2023-03-06T02:48:46.230Z,-0.02566
2023-03-06T02:49:46.272Z,-0.02566
2023-03-06T02:50:46.307Z,-0.02566
2023-03-06T02:51:46.338Z,-0.02566
2023-03-06T02:52:46.370Z,-0.01721
2023-03-06T02:53:46.408Z,-0.002727
2023-03-06T02:54:46.447Z,-0.002727
2023-03-06T02:55:46.491Z,-0.01721
2023-03-06T02:56:46.516Z,-0.01721
2023-03-06T02:57:46.560Z,-0.01721
2023-03-06T02:58:46.588Z,-0.01721
2023-03-06T02:59:46.634Z,-0.01721
2023-03-06T03:00:46.658Z,-0.01721
2023-03-06T03:01:46.754Z,-0.01721
2023-03-06T03:02:46.722Z,-0.00001087
2023-03-06T03:03:46.767Z,0.01814
2023-03-06T03:04:46.810Z,0.01814
2023-03-06T03:05:46.840Z,0.01814
2023-03-06T03:06:46.896Z,0.01814
2023-03-06T03:07:46.932Z,0.02657
2023-03-06T03:08:46.947Z,0.02657
2023-03-06T03:09:46.979Z,0.02657
2023-03-06T03:10:47.014Z,0.02657
2023-03-06T03:11:47.059Z,0.02657
2023-03-06T03:12:47.098Z,0.02657
2023-03-06T03:13:47.113Z,0.01203
2023-03-06T03:14:47.176Z,0.01203
2023-03-06T03:15:47.224Z,0.01203
2023-03-06T03:16:47.228Z,0.01203
2023-03-06T03:17:47.267Z,0.02923
2023-03-06T03:18:47.298Z,0.03284
2023-03-06T03:19:47.338Z,0.03284
2023-03-06T03:20:47.381Z,0.05576
2023-03-06T03:21:47.415Z,0.04121
2023-03-06T03:22:47.448Z,0.04121
2023-03-06T03:23:47.483Z,0.02663
2023-03-06T03:24:47.577Z,0.01205
2023-03-06T03:25:47.559Z,0.01205
2023-03-06T03:26:47.606Z,-0.002536
2023-03-06T03:27:47.637Z,0.01205
2023-03-06T03:28:47.670Z,-0.002536
2023-03-06T03:29:47.699Z,-0.002536
2023-03-06T03:30:47.782Z,-0.002536
2023-03-06T03:31:47.784Z,-0.002536
2023-03-06T03:32:47.811Z,-0.002536
2023-03-06T03:33:47.840Z,0.02295
2023-03-06T03:34:47.897Z,0.04012
2023-03-06T03:35:47.921Z,0.02548
2023-03-06T03:36:47.977Z,0.02548
2023-03-06T03:37:47.977Z,0.02548
2023-03-06T03:38:48.022Z,0.02548
2023-03-06T03:39:48.042Z,0.02548
2023-03-06T03:40:48.081Z,0.01084
2023-03-06T03:41:48.141Z,0.01084
2023-03-06T03:42:48.165Z,0.01084
2023-03-06T03:43:48.197Z,-0.00381
2023-03-06T03:44:48.224Z,-0.00381
2023-03-06T03:45:48.254Z,0.004398
2023-03-06T03:46:48.358Z,0.01909
2023-03-06T03:47:48.336Z,0.004398
2023-03-06T03:48:48.369Z,-0.01028
2023-03-06T03:49:48.401Z,-0.01028
2023-03-06T03:50:48.439Z,0.01031
2023-03-06T03:51:48.487Z,0.01371
2023-03-06T03:52:48.544Z,0.01371
2023-03-06T03:53:48.549Z,0.02843
2023-03-06T03:54:48.597Z,0.01371
2023-03-06T03:55:48.635Z,0.02843
2023-03-06T03:56:48.652Z,0.01371
2023-03-06T03:57:48.696Z,0.01371
2023-03-06T03:58:48.713Z,0.01371
2023-03-06T03:59:48.769Z,0.02843
2023-03-06T04:00:48.784Z,0.02843
2023-03-06T04:01:48.870Z,0.005537
2023-03-06T04:02:48.850Z,0.005537
2023-03-06T04:03:48.877Z,-0.03206
2023-03-06T04:04:48.972Z,-0.04681
2023-03-06T04:05:48.959Z,-0.08685
2023-03-06T04:06:48.991Z,-0.09269
2023-03-06T04:07:49.022Z,-0.09269
2023-03-06T04:08:49.063Z,-0.1156
2023-03-06T04:09:49.092Z,-0.1156
2023-03-06T04:10:49.131Z,-0.1009
2023-03-06T04:11:49.162Z,-0.1009
2023-03-06T04:12:49.194Z,-0.08622
2023-03-06T04:13:49.238Z,-0.08622
2023-03-06T04:14:49.274Z,-0.1385
2023-03-06T04:15:49.308Z,-0.1238
2023-03-06T04:16:49.348Z,-0.1238
2023-03-06T04:17:49.398Z,-0.132
2023-03-06T04:18:49.422Z,-0.1467
2023-03-06T04:19:49.461Z,-0.132
2023-03-06T04:20:49.497Z,-0.132
2023-03-06T04:21:49.552Z,-0.132
2023-03-06T04:22:49.568Z,-0.1173
2023-03-06T04:23:49.608Z,-0.1173
2023-03-06T04:24:49.651Z,-0.1173
2023-03-06T04:25:49.676Z,-0.1173
2023-03-06T04:26:49.729Z,-0.1467
2023-03-06T04:27:49.743Z,-0.2039
2023-03-06T04:28:49.823Z,-0.1893
2023-03-06T04:29:49.817Z,-0.2039
2023-03-06T04:30:49.856Z,-0.2039
2023-03-06T04:31:50.053Z,-0.1893
2023-03-06T04:32:49.946Z,-0.1893
2023-03-06T04:33:49.978Z,-0.1526
2023-03-06T04:34:50.024Z,-0.1673
2023-03-06T04:35:50.134Z,-0.1746
2023-03-06T04:36:50.093Z,-0.1746
2023-03-06T04:37:50.131Z,-0.1893
2023-03-06T04:38:50.191Z,-0.1893
2023-03-06T04:39:50.199Z,-0.1893
2023-03-06T04:40:50.246Z,-0.16
2023-03-06T04:41:50.272Z,-0.16
2023-03-06T04:42:50.315Z,-0.1746
2023-03-06T04:43:50.397Z,-0.1746
2023-03-06T04:44:50.392Z,-0.16
2023-03-06T04:45:50.440Z,-0.16
2023-03-06T04:46:50.470Z,-0.138
2023-03-06T04:47:50.516Z,-0.1893
2023-03-06T04:48:50.569Z,-0.1893
2023-03-06T04:49:50.593Z,-0.182
2023-03-06T04:50:50.625Z,-0.1966
2023-03-06T04:51:50.657Z,-0.248
2023-03-06T04:52:50.695Z,-0.2774
2023-03-06T04:53:50.734Z,-0.2922
2023-03-06T04:54:50.766Z,-0.2774
2023-03-06T04:55:50.802Z,-0.2774
2023-03-06T04:56:50.839Z,-0.2922
2023-03-06T04:57:50.875Z,-0.2922
2023-03-06T04:58:50.921Z,-0.2922
2023-03-06T04:59:50.966Z,-0.2774
2023-03-06T05:00:51.006Z,-0.2627
2023-03-06T05:01:51.042Z,-0.2627
2023-03-06T05:02:51.055Z,-0.2627
2023-03-06T05:03:51.105Z,-0.2627
2023-03-06T05:04:51.121Z,-0.248
2023-03-06T05:05:51.148Z,-0.2333
2023-03-06T05:06:51.191Z,-0.2186
2023-03-06T05:07:51.235Z,-0.2333
2023-03-06T05:08:51.269Z,-0.2333
2023-03-06T05:09:51.296Z,-0.2333
2023-03-06T05:10:51.326Z,-0.2333
2023-03-06T05:11:51.398Z,-0.248
2023-03-06T05:12:51.423Z,-0.2408
2023-03-06T05:13:51.455Z,-0.3055
2023-03-06T05:14:51.496Z,-0.3203
2023-03-06T05:15:51.522Z,-0.3351
2023-03-06T05:16:51.573Z,-0.3647
2023-03-06T05:17:51.619Z,-0.3647
2023-03-06T05:18:51.632Z,-0.3795
2023-03-06T05:19:51.669Z,-0.3943
2023-03-06T05:20:51.733Z,-0.3943
2023-03-06T05:21:51.774Z,-0.4092
2023-03-06T05:22:51.807Z,-0.4092
2023-03-06T05:23:51.810Z,-0.4389
2023-03-06T05:24:51.844Z,-0.4389
2023-03-06T05:25:51.879Z,-0.4389
2023-03-06T05:26:51.918Z,-0.4389
2023-03-06T05:27:51.954Z,-0.4757
2023-03-06T05:28:51.987Z,-0.4709
2023-03-06T05:29:52.030Z,-0.489
2023-03-06T05:30:52.052Z,-0.5039
2023-03-06T05:31:52.144Z,-0.5267
2023-03-06T05:32:52.165Z,-0.5267
2023-03-06T05:33:52.157Z,-0.5118
2023-03-06T05:34:52.196Z,-0.5198
2023-03-06T05:35:52.245Z,-0.5049
2023-03-06T05:36:52.265Z,-0.5049
2023-03-06T05:37:52.298Z,-0.4901
2023-03-06T05:38:52.325Z,-0.4901
2023-03-06T05:39:52.370Z,-0.4753
2023-03-06T05:40:52.403Z,-0.4604
2023-03-06T05:41:52.431Z,-0.4604
2023-03-06T05:42:52.474Z,-0.4604
2023-03-06T05:43:52.531Z,-0.4753
2023-03-06T05:44:52.534Z,-0.4901
2023-03-06T05:45:52.593Z,-0.4901
2023-03-06T05:46:52.607Z,-0.5049
2023-03-06T05:47:52.645Z,-0.5417
2023-03-06T05:48:52.693Z,-0.5417
2023-03-06T05:49:52.732Z,-0.5417
2023-03-06T05:50:52.761Z,-0.5198
2023-03-06T05:51:52.792Z,-0.5699
2023-03-06T05:52:52.825Z,-0.587
2023-03-06T05:53:52.856Z,-0.6099
2023-03-06T05:54:52.908Z,-0.6248
2023-03-06T05:55:52.916Z,-0.6248
2023-03-06T05:56:53.003Z,-0.6099
2023-03-06T05:57:52.986Z,-0.595
2023-03-06T05:58:53.028Z,-0.5802
2023-03-06T05:59:53.070Z,-0.5802
2023-03-06T06:00:53.091Z,-0.5882
2023-03-06T06:01:53.127Z,-0.5505
2023-03-06T06:02:53.183Z,-0.5357
2023-03-06T06:03:53.221Z,-0.5357
2023-03-06T06:04:53.244Z,-0.5505
2023-03-06T06:05:53.276Z,-0.5505
2023-03-06T06:06:53.314Z,-0.512
2023-03-06T06:07:53.345Z,-0.4901
2023-03-06T06:08:53.391Z,-0.4901
2023-03-06T06:09:53.414Z,-0.5049
2023-03-06T06:10:53.623Z,-0.5573
2023-03-06T06:11:53.484Z,-0.587
2023-03-06T06:12:53.520Z,-0.5642
2023-03-06T06:13:53.576Z,-0.5642
2023-03-06T06:14:53.580Z,-0.5791
2023-03-06T06:15:53.690Z,-0.594
2023-03-06T06:16:53.674Z,-0.6089
2023-03-06T06:17:53.684Z,-0.6168
2023-03-06T06:18:53.727Z,-0.594
2023-03-06T06:19:53.745Z,-0.6089
2023-03-06T06:20:55.873Z,-0.6089
2023-03-06T06:21:53.818Z,-0.6089
2023-03-06T06:22:53.851Z,-0.6089
2023-03-06T06:23:53.896Z,-0.6089
2023-03-06T06:24:53.938Z,-0.6067
2023-03-06T06:25:53.999Z,-0.5715
2023-03-06T06:26:54.005Z,-0.5865
2023-03-06T06:27:54.032Z,-0.5636
2023-03-06T06:28:54.074Z,-0.5636
2023-03-06T06:29:54.104Z,-0.5786
2023-03-06T06:30:54.255Z,-0.5786
2023-03-06T06:31:54.180Z,-0.5786
2023-03-06T06:32:54.228Z,-0.5936
2023-03-06T06:33:54.259Z,-0.5786
2023-03-06T06:34:54.299Z,-0.5936
2023-03-06T06:35:54.376Z,-0.5936
2023-03-06T06:36:54.410Z,-0.5936
2023-03-06T06:37:54.415Z,-0.6164
2023-03-06T06:38:54.447Z,-0.6014
2023-03-06T06:39:54.497Z,-0.6014
2023-03-06T06:41:30.669Z,-0.5865
2023-03-06T06:42:09.646Z,-0.5865
2023-03-06T06:42:54.580Z,-0.5715
2023-03-06T06:43:54.597Z,-0.5337
2023-03-06T06:44:54.641Z,-0.5566
2023-03-06T06:46:08.883Z,-0.5188
2023-03-06T06:47:22.382Z,-0.5188
2023-03-06T06:47:54.880Z,-0.5337
2023-03-06T06:48:54.779Z,-0.5258
2023-03-06T06:49:54.801Z,-0.5258
2023-03-06T06:50:54.845Z,-0.5258
2023-03-06T06:51:54.896Z,-0.5558
2023-03-06T06:52:54.925Z,-0.5527
2023-03-06T06:53:54.938Z,-0.5127
2023-03-06T06:54:54.996Z,-0.4977
2023-03-06T06:55:55.026Z,-0.5277
2023-03-06T06:56:55.071Z,-0.5629
2023-03-06T06:57:55.119Z,-0.5561
2023-03-06T06:59:01.355Z,-0.5711
2023-03-06T06:59:55.162Z,-0.5711
2023-03-06T07:00:55.190Z,-0.5862
2023-03-06T07:01:55.227Z,-0.6163
2023-03-06T07:02:55.268Z,-0.6163
2023-03-06T07:03:55.400Z,-0.6086
2023-03-06T07:05:03.839Z,-0.6237
2023-03-06T07:05:55.374Z,-0.6692
2023-03-06T07:06:55.404Z,-0.6843
2023-03-06T07:07:55.442Z,-0.6843
2023-03-06T07:08:56.633Z,-0.6995
2023-03-06T07:09:55.554Z,-0.7147
2023-03-06T07:10:55.546Z,-0.7452
2023-03-06T07:11:55.581Z,-0.7452
2023-03-06T07:12:55.626Z,-0.7299
2023-03-06T07:13:55.689Z,-0.7147
2023-03-06T07:14:55.694Z,-0.7299
2023-03-06T07:15:55.741Z,-0.7299
2023-03-06T07:16:55.771Z,-0.7452
2023-03-06T07:17:55.796Z,-0.7271
2023-03-06T07:18:55.837Z,-0.7091
2023-03-06T07:19:55.885Z,-0.7396
2023-03-06T07:20:55.889Z,-0.7396
2023-03-06T07:21:55.929Z,-0.7549
2023-03-06T07:22:55.956Z,-0.7396
2023-03-06T07:23:55.994Z,-0.7178
2023-03-06T07:24:56.056Z,-0.7178
2023-03-06T07:25:56.063Z,-0.7178
2023-03-06T07:26:56.098Z,-0.7178
2023-03-06T07:27:56.164Z,-0.6873
2023-03-06T07:28:56.182Z,-0.7025
2023-03-06T07:29:56.248Z,-0.695
2023-03-06T07:30:56.273Z,-0.7409
2023-03-06T07:31:56.398Z,-0.6677
2023-03-06T07:32:56.345Z,-0.6831
2023-03-06T07:33:56.354Z,-0.6756
2023-03-06T07:35:09.692Z,-0.7064
2023-03-06T07:35:56.572Z,-0.7218
2023-03-06T07:36:56.467Z,-0.7372
2023-03-06T07:37:56.495Z,-0.7064
2023-03-06T07:38:56.552Z,-0.7144
2023-03-06T07:39:56.565Z,-0.7762
2023-03-06T07:40:56.603Z,-0.7282
2023-03-06T07:41:56.628Z,-0.7102
2023-03-06T07:43:09.047Z,-0.7194
2023-03-06T07:43:56.695Z,-0.7504
2023-03-06T07:44:56.718Z,-0.7659
2023-03-06T07:45:56.759Z,-0.7432
2023-03-06T07:46:56.918Z,-0.7587
2023-03-06T07:47:56.829Z,-0.7743
2023-03-06T07:48:56.878Z,-0.7671
2023-03-06T07:49:56.885Z,-0.7671
2023-03-06T07:50:56.915Z,-0.7827
2023-03-06T07:51:56.962Z,-0.7444
2023-03-06T07:52:57.010Z,-0.7756
2023-03-06T07:53:57.014Z,-0.8225
2023-03-06T07:54:57.038Z,-0.8119
2023-03-06T07:55:57.076Z,-0.8264
2023-03-06T07:56:57.099Z,-0.8264
2023-03-06T07:57:57.149Z,-0.8737
2023-03-06T07:58:57.268Z,-0.8422
2023-03-06T07:59:57.219Z,-0.8579
2023-03-06T08:00:57.240Z,-0.8872
2023-03-06T08:01:57.266Z,-0.851
2023-03-06T08:02:57.342Z,-0.851
2023-03-06T08:03:57.405Z,-0.851
2023-03-06T08:04:57.372Z,-0.8195
2023-03-06T08:05:57.405Z,-0.7892
2023-03-06T08:06:57.446Z,-0.7832
2023-03-06T08:07:57.467Z,-0.799
2023-03-06T08:08:57.505Z,-0.799
2023-03-06T08:09:57.523Z,-0.8147
2023-03-06T08:10:57.567Z,-0.8305
2023-03-06T08:11:57.615Z,-0.8066
2023-03-06T08:12:57.621Z,-0.7729
2023-03-06T08:13:57.661Z,-0.8045
2023-03-06T08:14:57.695Z,-0.7887
2023-03-06T08:15:57.801Z,-0.8045
2023-03-06T08:16:57.747Z,-0.7818
2023-03-06T08:17:57.826Z,-0.8135
2023-03-06T08:18:57.823Z,-0.8135
2023-03-06T08:19:57.852Z,-0.7977
2023-03-06T08:20:57.887Z,-0.7818
2023-03-06T08:21:57.946Z,-0.7977
2023-03-06T08:22:57.959Z,-0.8453
2023-03-06T08:23:58.193Z,-0.8402
2023-03-06T08:24:58.008Z,-0.8185
2023-03-06T08:25:58.051Z,-0.8355
2023-03-06T08:26:58.076Z,-0.8675
2023-03-06T08:27:58.104Z,-0.8675
2023-03-06T08:28:58.149Z,-0.8355
2023-03-06T08:29:58.225Z,-0.8515
2023-03-06T08:30:58.219Z,-0.8704
2023-03-06T08:31:58.243Z,-0.8036
2023-03-06T08:32:58.280Z,-0.8026
2023-03-06T08:33:58.324Z,-0.8704
2023-03-06T08:34:58.357Z,-0.8704
2023-03-06T08:36:00.062Z,-0.8545
2023-03-06T08:36:58.470Z,-0.8227
2023-03-06T08:37:58.506Z,-0.8
2023-03-06T08:38:58.506Z,-0.8159
2023-03-06T08:39:58.515Z,-0.8318
2023-03-06T08:40:58.578Z,-0.8318
2023-03-06T08:41:58.587Z,-0.8478
2023-03-06T08:42:58.619Z,-0.9921
2023-03-06T08:43:58.665Z,-0.976
2023-03-06T08:44:58.682Z,-0.9599
2023-03-06T08:45:58.811Z,-0.9278
2023-03-06T08:46:58.897Z,-0.9278
2023-03-06T08:47:58.771Z,-0.9061
2023-03-06T08:48:58.814Z,-0.9382
2023-03-06T08:50:00.593Z,-0.9599
2023-03-06T08:50:58.887Z,-0.9382
2023-03-06T08:51:58.934Z,-0.9278
2023-03-06T08:52:58.977Z,-0.9278
2023-03-06T08:53:58.980Z,-0.9921
2023-03-06T08:54:59.021Z,-0.9865
2023-03-06T08:55:59.065Z,-0.9865
2023-03-06T08:56:59.106Z,-0.9704
2023-03-06T08:57:59.140Z,-1.019
2023-03-06T08:58:59.169Z,-1.035
2023-03-06T08:59:59.199Z,-1.035
2023-03-06T09:00:59.378Z,-1.04
2023-03-06T09:01:59.321Z,-0.9921
2023-03-06T09:02:59.315Z,-1.008
2023-03-06T09:03:59.349Z,-1.024
2023-03-06T09:04:59.394Z,-1.105
2023-03-06T09:05:59.412Z,-1.128
2023-03-06T09:06:59.439Z,-1.063
2023-03-06T09:07:59.476Z,-1.047
2023-03-06T09:08:59.511Z,-1.053
2023-03-06T09:09:59.539Z,-1.021
2023-03-06T09:10:59.573Z,-1.07
2023-03-06T09:11:59.610Z,-1.021
2023-03-06T09:12:59.647Z,-1.037
2023-03-06T09:13:59.706Z,-1.005
2023-03-06T09:14:59.719Z,-0.9957
2023-03-06T09:15:59.754Z,-0.9637
2023-03-06T09:16:59.869Z,-0.9317
2023-03-06T09:17:59.842Z,-0.9477
2023-03-06T09:18:59.857Z,-0.9317
2023-03-06T09:19:59.892Z,-0.9666
2023-03-06T09:20:59.941Z,-0.957
2023-03-06T09:21:59.997Z,-0.941
2023-03-06T09:23:00.001Z,-0.973
2023-03-06T09:24:00.050Z,-0.941
2023-03-06T09:25:00.064Z,-0.9759
2023-03-06T09:26:00.138Z,-0.9599
2023-03-06T09:27:00.138Z,-0.927
2023-03-06T09:28:11.018Z,-0.927
2023-03-06T09:29:00.245Z,-0.9693
2023-03-06T09:30:00.243Z,-0.9533
2023-03-06T09:31:00.327Z,-0.9693
2023-03-06T09:32:00.394Z,-1.001
2023-03-06T09:33:00.357Z,-1.082
2023-03-06T09:34:00.391Z,-1.066
2023-03-06T09:35:00.431Z,-1.065
2023-03-06T09:36:00.501Z,-1.097
2023-03-06T09:37:00.505Z,-1.081
2023-03-06T09:38:00.556Z,-1.097
2023-03-06T09:39:00.585Z,-1.146
2023-03-06T09:40:00.620Z,-1.178
2023-03-06T09:41:00.670Z,-1.089
2023-03-06T09:42:00.689Z,-1.121
2023-03-06T09:43:00.712Z,-1.139
2023-03-06T09:44:00.751Z,-1.072
2023-03-06T09:45:00.800Z,-1.172
2023-03-06T09:46:00.885Z,-1.254
2023-03-06T09:47:00.897Z,-1.303
2023-03-06T09:48:00.892Z,-1.27
2023-03-06T09:49:00.921Z,-1.252
2023-03-06T09:50:00.961Z,-1.251
2023-03-06T09:51:01.001Z,-1.251
2023-03-06T09:52:01.019Z,-1.287
2023-03-06T09:53:01.057Z,-1.369
2023-03-06T09:54:01.101Z,-1.335
2023-03-06T09:55:01.127Z,-1.352
2023-03-06T09:56:01.170Z,-1.303
2023-03-06T09:57:01.212Z,-1.32
2023-03-06T09:58:01.240Z,-1.287
2023-03-06T09:59:01.282Z,-1.287
2023-03-06T10:00:04.008Z,-1.282
2023-03-06T10:01:01.354Z,-1.247
2023-03-06T10:02:01.429Z,-1.247
2023-03-06T10:03:01.543Z,-1.296
2023-03-06T10:04:01.452Z,-1.345
2023-03-06T10:05:01.633Z,-1.378
2023-03-06T10:06:02.704Z,-1.412
2023-03-06T10:07:01.566Z,-1.395
2023-03-06T10:08:01.588Z,-1.395
2023-03-06T10:09:01.620Z,-1.389
2023-03-06T10:10:01.669Z,-1.439
2023-03-06T10:11:01.706Z,-1.439
2023-03-06T10:12:01.715Z,-1.445
2023-03-06T10:13:01.749Z,-1.478
2023-03-06T10:14:01.792Z,-1.495
2023-03-06T10:15:01.816Z,-1.495
2023-03-06T10:16:01.871Z,-1.511
2023-03-06T10:17:01.881Z,-1.478
2023-03-06T10:18:01.932Z,-1.445
2023-03-06T10:19:01.958Z,-1.461
2023-03-06T10:20:02.033Z,-1.412
2023-03-06T10:21:17.009Z,-1.378
2023-03-06T10:22:02.058Z,-1.362
2023-03-06T10:23:05.103Z,-1.329
2023-03-06T10:24:02.153Z,-1.339
2023-03-06T10:25:02.150Z,-1.339
2023-03-06T10:26:02.379Z,-1.406
2023-03-06T10:27:02.263Z,-1.472
2023-03-06T10:28:02.250Z,-1.522
2023-03-06T10:29:02.318Z,-1.545
2023-03-06T10:30:03.863Z,-1.528
2023-03-06T10:31:02.438Z,-1.42
2023-03-06T10:32:02.435Z,-1.436
2023-03-06T10:33:02.533Z,-1.353
2023-03-06T10:34:02.454Z,-1.32
2023-03-06T10:35:02.586Z,-1.42
2023-03-06T10:36:02.612Z,-1.353
2023-03-06T10:37:02.603Z,-1.331
2023-03-06T10:38:02.611Z,-1.353
2023-03-06T10:39:02.636Z,-1.318
2023-03-06T10:40:02.675Z,-1.279
2023-03-06T10:41:02.719Z,-1.279
2023-03-06T10:42:02.762Z,-1.329
2023-03-06T10:43:11.499Z,-1.345
2023-03-06T10:44:02.809Z,-1.312
2023-03-06T10:45:02.872Z,-1.206
2023-03-06T10:46:02.911Z,-1.323
2023-03-06T10:47:02.913Z,-1.39
2023-03-06T10:48:02.982Z,-1.423
2023-03-06T10:49:02.965Z,-1.457
2023-03-06T10:50:02.991Z,-1.384
2023-03-06T10:51:09.799Z,-1.351
2023-03-06T10:52:03.078Z,-1.334
2023-03-06T10:53:03.106Z,-1.367
2023-03-06T10:54:03.145Z,-1.366
2023-03-06T10:55:03.184Z,-1.362
2023-03-06T10:56:03.187Z,-1.362
2023-03-06T10:57:03.215Z,-1.412
2023-03-06T10:58:03.254Z,-1.378
2023-03-06T10:59:03.352Z,-1.345
2023-03-06T11:00:03.360Z,-1.239
2023-03-06T11:01:03.362Z,-1.205
2023-03-06T11:02:03.413Z,-1.219
2023-03-06T11:03:03.428Z,-1.266
2023-03-06T11:04:03.460Z,-1.249
2023-03-06T11:05:03.513Z,-1.367
2023-03-06T11:06:03.539Z,-1.418
2023-03-06T11:07:03.556Z,-1.486
2023-03-06T11:08:03.591Z,-1.469
2023-03-06T11:09:03.624Z,-1.503
2023-03-06T11:10:03.661Z,-1.571
2023-03-06T11:11:03.712Z,-1.605
2023-03-06T11:12:03.725Z,-1.605
2023-03-06T11:13:03.762Z,-1.605
2023-03-06T11:14:03.782Z,-1.502
2023-03-06T11:15:03.824Z,-1.554
2023-03-06T11:16:03.940Z,-1.6
2023-03-06T11:17:03.895Z,-1.548
2023-03-06T11:18:03.919Z,-1.669
2023-03-06T11:19:03.961Z,-1.703
2023-03-06T11:20:04.004Z,-1.686
2023-03-06T11:21:04.024Z,-1.635
2023-03-06T11:22:04.062Z,-1.704
2023-03-06T11:23:04.087Z,-1.699
2023-03-06T11:24:04.125Z,-1.699
2023-03-06T11:25:04.173Z,-1.699
2023-03-06T11:26:04.189Z,-1.786
2023-03-06T11:27:04.224Z,-1.873
2023-03-06T11:28:04.272Z,-1.768
2023-03-06T11:29:04.404Z,-1.786
2023-03-06T11:30:04.334Z,-1.816
2023-03-06T11:31:04.370Z,-1.728
2023-03-06T11:32:04.402Z,-1.711
2023-03-06T11:33:04.427Z,-1.847
2023-03-06T11:34:04.462Z,-1.829
2023-03-06T11:35:04.494Z,-1.847
2023-03-06T11:36:04.520Z,-1.9
2023-03-06T11:37:04.567Z,-1.812
2023-03-06T11:38:04.582Z,-1.865
2023-03-06T11:39:04.641Z,-1.865
2023-03-06T11:40:04.688Z,-1.741
2023-03-06T11:41:04.682Z,-1.773
2023-03-06T11:42:04.738Z,-1.843
2023-03-06T11:43:04.748Z,-1.79
2023-03-06T11:44:04.783Z,-1.733
2023-03-06T11:45:04.839Z,-1.839
2023-03-06T11:46:04.850Z,-1.893
2023-03-06T11:47:04.939Z,-1.893
2023-03-06T11:48:04.949Z,-1.786
2023-03-06T11:49:04.956Z,-1.799
2023-03-06T11:50:04.985Z,-1.835
2023-03-06T11:51:06.493Z,-1.765
2023-03-06T11:52:05.059Z,-1.83
2023-03-06T11:53:05.113Z,-1.901
2023-03-06T11:54:05.130Z,-1.937
2023-03-06T11:55:05.167Z,-1.813
2023-03-06T11:56:05.215Z,-1.809
2023-03-06T11:57:05.254Z,-1.97
2023-03-06T11:58:05.271Z,-1.898
2023-03-06T11:59:05.303Z,-1.896
2023-03-06T12:00:05.355Z,-1.987
2023-03-06T12:01:05.373Z,-1.828
2023-03-06T12:02:05.440Z,-1.917
2023-03-06T12:03:05.443Z,-1.934
2023-03-06T12:04:05.473Z,-1.912
2023-03-06T12:05:05.750Z,-1.985
2023-03-06T12:06:05.591Z,-2.057
2023-03-06T12:07:07.278Z,-2.057
2023-03-06T12:08:05.624Z,-2.132
2023-03-06T12:09:05.660Z,-2.204
2023-03-06T12:11:05.750Z,-2.02
2023-03-06T12:12:05.763Z,-1.947
2023-03-06T12:13:05.807Z,-1.947